KAFF

Usaf Academy Afld Airport

Colorado Springs, Colorado, USA
METAR KAFF 220558Z AUTO 16005KT 10SM OVC013 02/00 A3020 RMK AO2 SLP237 T00231001 10036 20023 58001
Observed Flight Rules
Apr-22 @ 05:58 UTC (54 minutes ago) Marginal Visual Flight Rules
Wind Visibility Clouds
160° at 5 knots 10 miles
  • Overcast at 1,300' AGL
Temperatures Readings
Current 2°C / 36°F
Dewpoint -0°C / 32°F
Humidity 87%
Altimeter 30.2" Hg
Pressure 1023.7 hPa
Elevation 2003
METAR KAFF 220558Z AUTO 16005KT 10SM OVC013 02/00 A3020 RMK AO2 SLP237 T00231001 10036 20023 58001
Observed Flight Rules
Apr-22 @ 05:58 UTC
(54 minutes ago)
MVFR
Wind Visibility
160° at 5 knots 10 miles
Clouds
  • Overcast at 1,300' AGL
Temperature Dewpoint
2°C / 36°F -0°C / 32°F
Humidity Altimeter Pressure
87% 30.2" Hg 1023.7 hPa